Terminal Aerodrome Forecast
Issued by NWS

Current Version | Previous Version | Text Only | Print | Product List | Glossary On
Versions: 1 2 3 4 5 6 7 8 9 10 11 12 13 14 15 16 17 18 19 20 21 22 23 24 25 26
545
FTUS43 KBIS 131738
TAFMOT
TAF
KMOT 131738Z 1318/1418 30017G23KT P6SM OVC025
     FM132100 31014G19KT P6SM OVC025
     FM140100 29010KT P6SM OVC020
     FM140500 28007KT P6SM -SHSN OVC020
     FM140700 28008KT 2SM -SN BR OVC015
     FM141100 32013G18KT 5SM -SN OVC015
     FM141500 31015G24KT P6SM -SHSN OVC020=

USA.gov is the U.S. government's official web portal to all federal, state and local government web resources and services.